Time;durP1;ratioP1;P1;durP2;ratioP2;P2;SDS_P1;SDS_P2;PMS_P1;PMS_P2;Temp;Humidity;BMP_temperature;BMP_pressure;BME280_temperature;BME280_humidity;BME280_pressure;Samples;Min_cycle;Max_cycle;Signal;HPM_P1;HPM_P2
2021/08/08 00:01:45;;;;;;;4.77;2.40;;;;;;;;;;5013526;28;20449;-53
2021/08/08 00:04:12;;;;;;;3.33;2.23;;;;;;;;;;5013650;28;20849;-54
2021/08/08 00:06:40;;;;;;;3.63;1.97;;;;;;;;;;5013204;28;20469;-55
2021/08/08 00:09:07;;;;;;;3.83;2.40;;;;;;;;;;5013554;28;20446;-54
2021/08/08 00:11:34;;;;;;;3.13;2.17;;;;;;;;;;5013315;28;20446;-54
2021/08/08 00:14:01;;;;;;;3.93;1.90;;;;;;;;;;5013439;28;20486;-54
2021/08/08 00:16:30;;;;;;;2.20;1.87;;;;;;;;;;5013457;28;20466;-54
2021/08/08 00:18:58;;;;;;;2.20;2.00;;;;;;;;;;5013291;28;21049;-54
2021/08/08 00:21:25;;;;;;;2.80;1.90;;;;;;;;;;5013204;28;20926;-54
2021/08/08 00:23:52;;;;;;;2.60;1.87;;;;;;;;;;5014797;28;20496;-54
2021/08/08 00:26:20;;;;;;;4.27;1.80;;;;;;;;;;5016961;28;21017;-54
2021/08/08 00:28:48;;;;;;;1.93;1.57;;;;;;;;;;5017131;28;20450;-54
2021/08/08 00:31:22;;;;;;;2.90;1.70;;;;;;;;;;5017096;28;20548;-55
2021/08/08 00:33:51;;;;;;;2.00;1.67;;;;;;;;;;5017331;28;20496;-55
2021/08/08 00:36:18;;;;;;;3.67;1.90;;;;;;;;;;5017319;28;20560;-55
2021/08/08 00:38:45;;;;;;;3.07;2.00;;;;;;;;;;5017255;28;20449;-55
2021/08/08 00:41:13;;;;;;;2.07;1.67;;;;;;;;;;5017269;28;20520;-55
2021/08/08 00:43:40;;;;;;;2.57;1.73;;;;;;;;;;5016854;28;20441;-55
2021/08/08 00:46:08;;;;;;;3.87;2.00;;;;;;;;;;5017287;28;20478;-54
2021/08/08 00:48:35;;;;;;;1.87;1.53;;;;;;;;;;5017426;28;20457;-54
2021/08/08 00:51:04;;;;;;;1.80;1.40;;;;;;;;;;5017236;28;20446;-54
2021/08/08 00:53:32;;;;;;;6.70;2.43;;;;;;;;;;5016992;28;20474;-54
2021/08/08 00:55:59;;;;;;;1.60;1.50;;;;;;;;;;5016692;28;20520;-54
2021/08/08 00:58:28;;;;;;;2.03;1.60;;;;;;;;;;5017014;28;20521;-54
2021/08/08 01:00:57;;;;;;;1.93;1.70;;;;;;;;;;5016542;28;20456;-54
2021/08/08 01:03:25;;;;;;;2.17;1.57;;;;;;;;;;5016874;28;20873;-55
2021/08/08 01:05:52;;;;;;;2.40;1.70;;;;;;;;;;5016986;28;20470;-55
2021/08/08 01:08:24;;;;;;;2.90;1.73;;;;;;;;;;5016640;28;20942;-55
2021/08/08 01:10:52;;;;;;;1.93;1.73;;;;;;;;;;5016771;28;20434;-55
2021/08/08 01:13:20;;;;;;;2.27;1.50;;;;;;;;;;5016934;28;20826;-55
2021/08/08 01:15:50;;;;;;;2.40;1.87;;;;;;;;;;5016951;28;20520;-55
2021/08/08 01:18:18;;;;;;;3.00;1.70;;;;;;;;;;5016596;28;20450;-55
2021/08/08 01:20:47;;;;;;;1.90;1.60;;;;;;;;;;5016346;28;20918;-55
2021/08/08 01:23:15;;;;;;;2.70;1.70;;;;;;;;;;5016856;28;20496;-55
2021/08/08 01:25:45;;;;;;;4.50;1.50;;;;;;;;;;5016788;28;20594;-56
2021/08/08 01:28:13;;;;;;;1.73;1.40;;;;;;;;;;5016553;28;20844;-55
2021/08/08 01:30:40;;;;;;;2.03;1.77;;;;;;;;;;5017120;28;20449;-55
2021/08/08 01:33:09;;;;;;;4.30;1.53;;;;;;;;;;5017952;28;20481;-55
2021/08/08 01:35:36;;;;;;;2.10;1.27;;;;;;;;;;5015561;28;20469;-56
2021/08/08 01:38:03;;;;;;;2.20;1.30;;;;;;;;;;5016024;28;20476;-55
2021/08/08 01:40:34;;;;;;;3.20;1.30;;;;;;;;;;5015874;28;20450;-54
2021/08/08 01:43:03;;;;;;;1.00;0.90;;;;;;;;;;5015919;28;20446;-54
2021/08/08 01:45:31;;;;;;;3.30;1.77;;;;;;;;;;5016003;28;20524;-55
2021/08/08 01:48:01;;;;;;;3.70;1.27;;;;;;;;;;5016304;28;20442;-54
2021/08/08 01:50:31;;;;;;;1.67;1.10;;;;;;;;;;5016016;28;20934;-54
2021/08/08 01:52:59;;;;;;;3.80;1.40;;;;;;;;;;5016221;28;20451;-55
2021/08/08 01:55:26;;;;;;;2.47;1.40;;;;;;;;;;5015704;28;20469;-54
2021/08/08 01:57:53;;;;;;;1.27;0.90;;;;;;;;;;5016390;28;20511;-55
2021/08/08 02:00:23;;;;;;;2.00;1.33;;;;;;;;;;5015498;28;20446;-55
2021/08/08 02:02:51;;;;;;;3.67;1.30;;;;;;;;;;5015552;28;20976;-54
2021/08/08 02:05:20;;;;;;;2.37;1.87;;;;;;;;;;5015737;28;20508;-54
2021/08/08 02:07:47;;;;;;;1.60;1.20;;;;;;;;;;5015474;28;20508;-53
2021/08/08 02:10:15;;;;;;;3.30;1.10;;;;;;;;;;5015384;28;20964;-54
2021/08/08 02:12:42;;;;;;;2.20;1.20;;;;;;;;;;5015575;28;20446;-54
2021/08/08 02:15:10;;;;;;;1.53;1.00;;;;;;;;;;5015530;28;20482;-55
2021/08/08 02:17:38;;;;;;;1.23;0.90;;;;;;;;;;5015658;28;20537;-54
2021/08/08 02:20:07;;;;;;;2.60;1.20;;;;;;;;;;5015279;28;21000;-53
2021/08/08 02:22:35;;;;;;;1.87;1.07;;;;;;;;;;5015132;28;20454;-55
2021/08/08 02:25:02;;;;;;;2.80;1.27;;;;;;;;;;5015564;28;20532;-54
2021/08/08 02:27:31;;;;;;;1.37;0.93;;;;;;;;;;5015331;28;20484;-55
2021/08/08 02:29:58;;;;;;;1.20;1.00;;;;;;;;;;5015598;28;20508;-54
2021/08/08 02:32:25;;;;;;;2.07;1.43;;;;;;;;;;5015254;28;20446;-54
2021/08/08 02:34:54;;;;;;;2.20;1.20;;;;;;;;;;5015045;28;20489;-55
2021/08/08 02:37:21;;;;;;;2.00;1.20;;;;;;;;;;5015177;28;20453;-54
2021/08/08 02:39:48;;;;;;;1.87;1.00;;;;;;;;;;5015046;28;20450;-54
2021/08/08 02:42:15;;;;;;;3.50;0.80;;;;;;;;;;5015037;28;20442;-55
2021/08/08 02:44:43;;;;;;;1.43;0.90;;;;;;;;;;5014902;28;20859;-55
2021/08/08 02:47:10;;;;;;;1.57;1.07;;;;;;;;;;5013951;28;20513;-55
2021/08/08 02:49:37;;;;;;;2.53;0.97;;;;;;;;;;5014607;28;20938;-55
2021/08/08 02:52:06;;;;;;;1.10;1.00;;;;;;;;;;5014496;28;20504;-54
2021/08/08 02:54:34;;;;;;;1.67;1.07;;;;;;;;;;5014328;28;20484;-56
2021/08/08 02:57:01;;;;;;;1.30;1.03;;;;;;;;;;5014456;28;20533;-55
2021/08/08 02:59:28;;;;;;;2.37;1.40;;;;;;;;;;5014710;28;20496;-55
2021/08/08 03:01:55;;;;;;;1.20;1.10;;;;;;;;;;5014328;28;20445;-55
2021/08/08 03:04:23;;;;;;;2.73;1.10;;;;;;;;;;5014268;28;20547;-54
2021/08/08 03:06:50;;;;;;;2.37;1.30;;;;;;;;;;5014396;28;20528;-55
2021/08/08 03:09:18;;;;;;;1.80;1.23;;;;;;;;;;5016298;28;20914;-55
2021/08/08 03:11:46;;;;;;;2.90;1.10;;;;;;;;;;5015339;28;20870;-55
2021/08/08 03:14:14;;;;;;;0.90;0.77;;;;;;;;;;5015770;28;20559;-56
2021/08/08 03:16:42;;;;;;;2.10;1.20;;;;;;;;;;5015196;28;20557;-54
2021/08/08 03:19:09;;;;;;;1.50;1.10;;;;;;;;;;5014476;28;20442;-55
2021/08/08 03:21:36;;;;;;;2.10;0.93;;;;;;;;;;5014796;28;20446;-55
2021/08/08 03:24:04;;;;;;;2.03;1.23;;;;;;;;;;5015022;28;20809;-55
2021/08/08 03:26:33;;;;;;;1.40;1.10;;;;;;;;;;5015200;28;20490;-54
2021/08/08 03:29:00;;;;;;;1.77;1.00;;;;;;;;;;5014042;28;21004;-55
2021/08/08 03:31:28;;;;;;;2.93;1.00;;;;;;;;;;5013937;28;20446;-54
2021/08/08 03:33:55;;;;;;;1.87;1.10;;;;;;;;;;5014060;28;20474;-54
2021/08/08 03:36:23;;;;;;;1.50;1.20;;;;;;;;;;5014366;28;20973;-54
2021/08/08 03:38:50;;;;;;;1.13;0.90;;;;;;;;;;5014618;28;20505;-55
2021/08/08 03:41:17;;;;;;;1.20;0.80;;;;;;;;;;5014610;28;20445;-54
2021/08/08 03:43:46;;;;;;;1.67;1.10;;;;;;;;;;5013743;28;20446;-54
2021/08/08 03:46:13;;;;;;;1.37;1.10;;;;;;;;;;5013545;28;20984;-54
2021/08/08 03:48:40;;;;;;;2.13;1.00;;;;;;;;;;5014009;28;20458;-54
2021/08/08 03:51:08;;;;;;;3.27;1.20;;;;;;;;;;5013847;28;20446;-54
2021/08/08 03:53:35;;;;;;;3.40;1.50;;;;;;;;;;5013453;28;20504;-54
2021/08/08 03:56:02;;;;;;;1.97;1.30;;;;;;;;;;5013683;28;20567;-54
2021/08/08 03:58:30;;;;;;;2.60;1.23;;;;;;;;;;5013162;28;21000;-54
2021/08/08 04:01:00;;;;;;;1.30;0.93;;;;;;;;;;5013205;28;21021;-54
2021/08/08 04:03:28;;;;;;;1.30;1.00;;;;;;;;;;5013753;28;20536;-54
2021/08/08 04:08:25;;;;;;;1.67;1.03;;;;;;;;;;5091350;27;20546;-53
2021/08/08 04:10:52;;;;;;;3.63;1.10;;;;;;;;;;5090851;28;20450;-54
2021/08/08 04:13:20;;;;;;;1.40;1.00;;;;;;;;;;5090465;28;20867;-54
2021/08/08 04:15:47;;;;;;;3.37;1.20;;;;;;;;;;5090443;28;20462;-54
2021/08/08 04:18:14;;;;;;;2.03;1.20;;;;;;;;;;5090655;28;20496;-55
2021/08/08 04:20:41;;;;;;;4.00;1.30;;;;;;;;;;5090346;28;20849;-55
2021/08/08 04:23:10;;;;;;;1.70;1.20;;;;;;;;;;5090348;28;20442;-55
2021/08/08 04:25:39;;;;;;;2.20;1.17;;;;;;;;;;5090156;28;20463;-55
2021/08/08 04:28:07;;;;;;;2.17;1.33;;;;;;;;;;5090138;28;20523;-55
2021/08/08 04:30:34;;;;;;;1.33;1.00;;;;;;;;;;5090544;28;20525;-54
2021/08/08 04:33:02;;;;;;;1.47;1.20;;;;;;;;;;5090191;28;20472;-54
2021/08/08 04:35:29;;;;;;;1.87;1.10;;;;;;;;;;5090354;28;20466;-54
2021/08/08 04:37:57;;;;;;;2.67;1.30;;;;;;;;;;5090359;28;20533;-54
2021/08/08 04:40:24;;;;;;;1.50;1.17;;;;;;;;;;5090361;28;20450;-54
2021/08/08 04:42:53;;;;;;;1.20;0.97;;;;;;;;;;5090207;28;20443;-53
2021/08/08 04:45:21;;;;;;;2.00;1.10;;;;;;;;;;5090156;28;20466;-53
2021/08/08 04:47:48;;;;;;;1.23;1.00;;;;;;;;;;5090079;28;20512;-54
2021/08/08 04:50:16;;;;;;;1.27;1.13;;;;;;;;;;5090159;28;20447;-54
2021/08/08 04:52:45;;;;;;;1.40;1.10;;;;;;;;;;5090024;28;20495;-54
2021/08/08 04:55:12;;;;;;;1.30;1.07;;;;;;;;;;5089963;28;20488;-54
2021/08/08 04:57:40;;;;;;;2.17;1.23;;;;;;;;;;5089944;28;20439;-54
2021/08/08 05:00:09;;;;;;;2.73;1.20;;;;;;;;;;5089575;28;20454;-55
2021/08/08 05:02:37;;;;;;;1.50;1.33;;;;;;;;;;5089468;28;21023;-53
2021/08/08 05:05:05;;;;;;;2.07;1.87;;;;;;;;;;5089735;28;20467;-53
2021/08/08 05:07:32;;;;;;;1.63;1.43;;;;;;;;;;5089462;28;20572;-54
2021/08/08 05:09:59;;;;;;;1.90;1.80;;;;;;;;;;5089467;28;20450;-54
2021/08/08 05:12:27;;;;;;;3.43;2.03;;;;;;;;;;5089813;28;20464;-54
2021/08/08 05:14:54;;;;;;;3.37;1.60;;;;;;;;;;5090083;28;20519;-54
2021/08/08 05:17:22;;;;;;;2.33;1.67;;;;;;;;;;5089605;28;20492;-54
2021/08/08 05:19:50;;;;;;;4.73;1.80;;;;;;;;;;5075747;28;20451;-54
2021/08/08 05:22:17;;;;;;;2.17;1.60;;;;;;;;;;5075768;28;20470;-54
2021/08/08 05:24:44;;;;;;;1.60;1.50;;;;;;;;;;5075952;28;20448;-55
2021/08/08 05:27:11;;;;;;;1.33;1.20;;;;;;;;;;5075654;28;21052;-53
2021/08/08 05:29:38;;;;;;;3.27;1.90;;;;;;;;;;5075625;28;20455;-53
2021/08/08 05:32:06;;;;;;;1.70;1.60;;;;;;;;;;5075893;28;20443;-53
2021/08/08 05:34:35;;;;;;;3.33;1.70;;;;;;;;;;5075540;28;20443;-55
2021/08/08 05:37:02;;;;;;;1.90;1.50;;;;;;;;;;5075474;28;20447;-53
2021/08/08 05:39:29;;;;;;;5.47;1.70;;;;;;;;;;5075755;28;20443;-54
2021/08/08 05:41:56;;;;;;;1.90;1.73;;;;;;;;;;5075478;28;20504;-54
2021/08/08 05:44:24;;;;;;;1.90;1.70;;;;;;;;;;5075715;28;20447;-54
2021/08/08 05:46:51;;;;;;;2.97;2.13;;;;;;;;;;5075164;28;20979;-54
2021/08/08 05:49:18;;;;;;;6.10;2.00;;;;;;;;;;5075536;28;20493;-54
2021/08/08 05:51:47;;;;;;;2.90;1.83;;;;;;;;;;5075088;28;21014;-54
2021/08/08 05:54:14;;;;;;;3.97;1.73;;;;;;;;;;5075094;28;20935;-55
2021/08/08 05:56:41;;;;;;;1.70;1.60;;;;;;;;;;5075031;28;20467;-55
2021/08/08 05:59:09;;;;;;;2.60;1.73;;;;;;;;;;5075505;28;20525;-55
2021/08/08 06:01:37;;;;;;;2.73;2.00;;;;;;;;;;5075120;28;20829;-54
2021/08/08 06:04:04;;;;;;;2.80;1.90;;;;;;;;;;5075282;28;20443;-55
2021/08/08 06:06:33;;;;;;;4.27;1.90;;;;;;;;;;5074999;28;20479;-55
2021/08/08 06:09:02;;;;;;;2.37;1.77;;;;;;;;;;5075186;28;20477;-55
2021/08/08 06:11:29;;;;;;;2.00;1.50;;;;;;;;;;5074807;28;20443;-54
2021/08/08 06:13:56;;;;;;;2.60;1.80;;;;;;;;;;5075061;28;20435;-55
2021/08/08 06:16:23;;;;;;;1.87;1.70;;;;;;;;;;5074943;28;20471;-55
2021/08/08 06:18:51;;;;;;;1.60;1.50;;;;;;;;;;5075370;28;20553;-55
2021/08/08 06:21:18;;;;;;;2.40;1.90;;;;;;;;;;5075185;28;20981;-55
2021/08/08 06:23:45;;;;;;;3.30;2.10;;;;;;;;;;5075266;28;20447;-55
2021/08/08 06:26:14;;;;;;;3.90;1.87;;;;;;;;;;5075258;28;20509;-55
2021/08/08 06:28:41;;;;;;;3.43;2.40;;;;;;;;;;5075155;28;20471;-55
2021/08/08 06:31:08;;;;;;;2.60;1.83;;;;;;;;;;5074420;28;20447;-55
2021/08/08 06:33:35;;;;;;;4.30;2.30;;;;;;;;;;5075096;28;20447;-55
2021/08/08 06:36:03;;;;;;;3.27;2.20;;;;;;;;;;5074846;28;20489;-55
2021/08/08 06:38:30;;;;;;;1.90;1.70;;;;;;;;;;5075029;28;20486;-58
2021/08/08 06:40:57;;;;;;;3.77;2.00;;;;;;;;;;5074881;28;20500;-55
2021/08/08 06:43:26;;;;;;;3.20;2.07;;;;;;;;;;5074451;28;20866;-55
2021/08/08 06:45:53;;;;;;;2.47;1.93;;;;;;;;;;5074567;28;20464;-55
2021/08/08 06:48:20;;;;;;;3.40;2.10;;;;;;;;;;5074144;28;20471;-55
2021/08/08 06:50:47;;;;;;;2.80;2.40;;;;;;;;;;5075687;28;20443;-54
2021/08/08 06:53:15;;;;;;;3.03;2.10;;;;;;;;;;5074385;28;20443;-55
2021/08/08 06:55:42;;;;;;;2.57;2.37;;;;;;;;;;5074304;28;20516;-54
2021/08/08 06:58:09;;;;;;;3.03;2.33;;;;;;;;;;5073913;28;20981;-54
2021/08/08 07:00:38;;;;;;;4.00;2.30;;;;;;;;;;5074299;28;20447;-54
2021/08/08 07:03:06;;;;;;;2.93;2.30;;;;;;;;;;5074287;28;20497;-54
2021/08/08 07:05:33;;;;;;;3.40;1.90;;;;;;;;;;5074209;28;20498;-54
2021/08/08 07:08:01;;;;;;;5.30;2.30;;;;;;;;;;5073637;28;20491;-54
2021/08/08 07:10:28;;;;;;;2.70;2.10;;;;;;;;;;5073780;28;20448;-54
2021/08/08 07:12:55;;;;;;;4.13;2.20;;;;;;;;;;5074152;28;20496;-55
2021/08/08 07:15:22;;;;;;;5.33;2.50;;;;;;;;;;5073618;28;20973;-55
2021/08/08 07:17:51;;;;;;;5.10;2.73;;;;;;;;;;5073529;28;20923;-54
2021/08/08 07:20:18;;;;;;;3.97;2.47;;;;;;;;;;5073617;28;21005;-54
2021/08/08 07:22:45;;;;;;;3.53;2.10;;;;;;;;;;5074466;28;20854;-54
2021/08/08 07:25:13;;;;;;;3.10;2.20;;;;;;;;;;5073864;28;20624;-54
2021/08/08 07:27:40;;;;;;;5.70;2.40;;;;;;;;;;5075933;28;20475;-55
2021/08/08 07:30:08;;;;;;;4.43;2.47;;;;;;;;;;5075849;28;20879;-54
2021/08/08 07:32:35;;;;;;;3.47;2.40;;;;;;;;;;5075474;28;20447;-54
2021/08/08 07:35:04;;;;;;;3.70;2.97;;;;;;;;;;5075567;28;20459;-54
2021/08/08 07:37:31;;;;;;;3.97;2.30;;;;;;;;;;5075109;28;20451;-54
2021/08/08 07:39:58;;;;;;;7.80;2.63;;;;;;;;;;5075211;28;20447;-55
2021/08/08 07:42:26;;;;;;;4.50;2.70;;;;;;;;;;5073998;28;20888;-54
2021/08/08 07:44:53;;;;;;;4.90;2.63;;;;;;;;;;5075028;28;20521;-55
2021/08/08 07:47:20;;;;;;;4.20;2.43;;;;;;;;;;5074705;28;20502;-55
2021/08/08 07:49:47;;;;;;;5.20;2.40;;;;;;;;;;5075259;28;20802;-55
2021/08/08 07:52:16;;;;;;;5.00;2.30;;;;;;;;;;5074885;28;20443;-55
2021/08/08 07:54:43;;;;;;;3.80;2.33;;;;;;;;;;5075226;28;20447;-54
2021/08/08 07:57:10;;;;;;;6.33;3.10;;;;;;;;;;5075062;28;20500;-54
2021/08/08 07:59:37;;;;;;;3.20;2.30;;;;;;;;;;5074897;28;20520;-54
2021/08/08 08:02:05;;;;;;;3.70;2.43;;;;;;;;;;5074368;28;20477;-54
2021/08/08 08:04:32;;;;;;;5.10;2.90;;;;;;;;;;5074247;28;20841;-55
2021/08/08 08:06:59;;;;;;;6.43;2.73;;;;;;;;;;5074207;28;20512;-54
2021/08/08 08:09:28;;;;;;;5.00;2.47;;;;;;;;;;5075333;28;20483;-53
2021/08/08 08:11:55;;;;;;;3.00;2.43;;;;;;;;;;5074380;28;20599;-56
2021/08/08 08:14:22;;;;;;;5.10;2.67;;;;;;;;;;5074087;28;20443;-55
2021/08/08 08:16:49;;;;;;;5.80;2.57;;;;;;;;;;5074516;28;20468;-54
2021/08/08 08:19:17;;;;;;;4.20;2.67;;;;;;;;;;5074776;28;20435;-54
2021/08/08 08:21:44;;;;;;;3.53;2.50;;;;;;;;;;5074974;28;20855;-56
2021/08/08 08:24:12;;;;;;;2.30;2.10;;;;;;;;;;5074494;28;20501;-55
2021/08/08 08:26:40;;;;;;;7.00;3.30;;;;;;;;;;5074406;28;20463;-55
2021/08/08 08:29:08;;;;;;;5.70;2.50;;;;;;;;;;5076032;28;20575;-55
2021/08/08 08:31:35;;;;;;;4.73;2.93;;;;;;;;;;5072607;28;20440;-55
2021/08/08 08:34:02;;;;;;;4.50;2.73;;;;;;;;;;5072868;28;20447;-55
2021/08/08 08:36:30;;;;;;;3.70;2.70;;;;;;;;;;5072507;28;20521;-55
2021/08/08 08:38:57;;;;;;;4.90;2.67;;;;;;;;;;5072848;28;20487;-55
2021/08/08 08:41:27;;;;;;;3.33;2.50;;;;;;;;;;5072748;28;20446;-54
2021/08/08 08:43:56;;;;;;;2.80;2.60;;;;;;;;;;5072905;28;20837;-55
2021/08/08 08:46:24;;;;;;;4.47;2.93;;;;;;;;;;5072696;28;20520;-55
2021/08/08 08:48:51;;;;;;;3.17;2.50;;;;;;;;;;5072346;28;20567;-55
2021/08/08 08:51:19;;;;;;;3.17;2.43;;;;;;;;;;5072497;28;20437;-55
2021/08/08 08:53:47;;;;;;;4.20;2.30;;;;;;;;;;5073863;28;20503;-55
2021/08/08 08:56:15;;;;;;;4.17;2.40;;;;;;;;;;5076185;28;20465;-55
2021/08/08 08:58:42;;;;;;;3.57;2.43;;;;;;;;;;5076488;28;20491;-55
2021/08/08 09:01:11;;;;;;;4.00;2.53;;;;;;;;;;5076412;28;20438;-54
2021/08/08 09:03:40;;;;;;;3.43;2.47;;;;;;;;;;5076159;28;20450;-55
2021/08/08 09:06:08;;;;;;;3.07;2.50;;;;;;;;;;5076071;28;20832;-55
2021/08/08 09:08:35;;;;;;;3.40;2.57;;;;;;;;;;5076386;28;20462;-55
2021/08/08 09:11:06;;;;;;;3.70;2.80;;;;;;;;;;5075798;28;20507;-55
2021/08/08 09:13:33;;;;;;;5.07;2.47;;;;;;;;;;5076095;28;20864;-55
2021/08/08 09:16:03;;;;;;;4.47;2.93;;;;;;;;;;5076037;28;20515;-55
2021/08/08 09:18:31;;;;;;;5.10;2.80;;;;;;;;;;5075578;28;20500;-55
2021/08/08 09:20:59;;;;;;;6.80;2.90;;;;;;;;;;5075652;28;20453;-55
2021/08/08 09:23:35;;;;;;;5.17;2.40;;;;;;;;;;5075371;28;20490;-55
2021/08/08 09:26:02;;;;;;;2.80;2.43;;;;;;;;;;5076945;28;20985;-55
2021/08/08 09:28:30;;;;;;;3.67;2.70;;;;;;;;;;5075807;28;20544;-55
2021/08/08 09:30:57;;;;;;;4.10;2.80;;;;;;;;;;5075687;28;20855;-55
2021/08/08 09:33:25;;;;;;;4.07;2.23;;;;;;;;;;5075694;28;20881;-55
2021/08/08 09:35:54;;;;;;;5.47;2.67;;;;;;;;;;5075237;28;20872;-55
2021/08/08 09:38:22;;;;;;;6.17;2.30;;;;;;;;;;5075564;28;20860;-55
2021/08/08 09:40:56;;;;;;;4.13;2.00;;;;;;;;;;5075386;28;20438;-55
2021/08/08 09:43:26;;;;;;;4.37;2.20;;;;;;;;;;5075633;28;20447;-55
2021/08/08 09:45:53;;;;;;;3.83;2.00;;;;;;;;;;5075210;28;20985;-55
2021/08/08 09:48:21;;;;;;;3.93;2.37;;;;;;;;;;5075091;28;20855;-54
2021/08/08 09:50:49;;;;;;;5.30;2.23;;;;;;;;;;5075130;28;20548;-55
2021/08/08 09:53:19;;;;;;;2.53;2.10;;;;;;;;;;5075286;28;20461;-55
2021/08/08 09:55:47;;;;;;;3.50;2.00;;;;;;;;;;5075329;28;20526;-53
2021/08/08 09:58:20;;;;;;;5.73;2.50;;;;;;;;;;5075077;28;20499;-55
2021/08/08 10:00:48;;;;;;;10.20;2.57;;;;;;;;;;5075293;28;20438;-54
2021/08/08 10:03:15;;;;;;;3.10;2.30;;;;;;;;;;5075004;28;20992;-55
2021/08/08 10:05:44;;;;;;;4.00;2.13;;;;;;;;;;5074891;28;20474;-54
2021/08/08 10:08:12;;;;;;;5.20;2.83;;;;;;;;;;5074658;28;20552;-54
2021/08/08 10:10:41;;;;;;;3.53;1.90;;;;;;;;;;5074816;28;20484;-55
2021/08/08 10:13:21;;;;;;;4.17;2.37;;;;;;;;;;5074755;28;20455;-55
2021/08/08 10:15:51;;;;;;;3.97;2.90;;;;;;;;;;5074661;28;20466;-55
2021/08/08 10:18:18;;;;;;;7.73;3.83;;;;;;;;;;5076131;28;20443;-55
2021/08/08 10:20:46;;;;;;;5.50;2.40;;;;;;;;;;5074965;28;20492;-54
2021/08/08 10:23:15;;;;;;;4.80;2.40;;;;;;;;;;5075079;28;20804;-55
2021/08/08 10:25:44;;;;;;;3.40;2.40;;;;;;;;;;5074476;28;20925;-55
2021/08/08 10:28:12;;;;;;;4.00;2.77;;;;;;;;;;5074566;28;20447;-55
2021/08/08 10:30:39;;;;;;;3.57;2.20;;;;;;;;;;5074710;28;20451;-55
2021/08/08 10:33:07;;;;;;;6.87;2.20;;;;;;;;;;5074619;28;20921;-55
2021/08/08 10:35:39;;;;;;;3.13;2.03;;;;;;;;;;5074283;28;20463;-54
2021/08/08 10:38:06;;;;;;;4.67;2.47;;;;;;;;;;5074548;28;20431;-55
2021/08/08 10:40:34;;;;;;;3.00;2.20;;;;;;;;;;5074058;28;20447;-53
2021/08/08 10:43:02;;;;;;;4.93;2.30;;;;;;;;;;5074411;28;20441;-55
2021/08/08 10:45:30;;;;;;;7.00;2.47;;;;;;;;;;5073954;28;20468;-55
2021/08/08 10:47:59;;;;;;;2.83;1.90;;;;;;;;;;5074305;28;20858;-56
2021/08/08 10:50:36;;;;;;;5.83;2.10;;;;;;;;;;5073990;28;20995;-55
2021/08/08 10:53:03;;;;;;;2.30;1.90;;;;;;;;;;5074210;28;20424;-56
2021/08/08 10:55:32;;;;;;;5.57;2.80;;;;;;;;;;5074191;28;20467;-55
2021/08/08 10:58:00;;;;;;;3.40;2.40;;;;;;;;;;5074148;28;20498;-55
2021/08/08 11:00:33;;;;;;;3.33;2.10;;;;;;;;;;5074046;28;20440;-56
2021/08/08 11:03:10;;;;;;;5.43;2.60;;;;;;;;;;5074149;28;20431;-55
2021/08/08 11:05:37;;;;;;;4.70;2.30;;;;;;;;;;5074023;28;20471;-53
2021/08/08 11:08:06;;;;;;;8.97;2.60;;;;;;;;;;5073793;28;20511;-54
2021/08/08 11:10:33;;;;;;;3.33;2.77;;;;;;;;;;5073349;28;20532;-55
2021/08/08 11:13:00;;;;;;;5.33;2.80;;;;;;;;;;5073343;28;20857;-55
2021/08/08 11:15:35;;;;;;;5.20;3.20;;;;;;;;;;5073387;28;20462;-55
2021/08/08 11:18:02;;;;;;;3.73;3.37;;;;;;;;;;5072596;28;20453;-54
2021/08/08 11:20:30;;;;;;;4.60;2.90;;;;;;;;;;5073151;28;20944;-54
2021/08/08 11:22:58;;;;;;;5.73;3.43;;;;;;;;;;5073491;28;20508;-54
2021/08/08 11:25:26;;;;;;;3.70;2.40;;;;;;;;;;5073166;28;20469;-56
2021/08/08 11:27:54;;;;;;;3.80;2.00;;;;;;;;;;5073553;28;20451;-54
2021/08/08 11:30:22;;;;;;;3.57;2.17;;;;;;;;;;5073279;28;20521;-55
2021/08/08 11:32:55;;;;;;;2.70;1.80;;;;;;;;;;5073248;28;20438;-55
2021/08/08 11:35:27;;;;;;;3.13;1.80;;;;;;;;;;5073085;28;20462;-55
2021/08/08 11:37:54;;;;;;;3.17;1.97;;;;;;;;;;5073431;28;20529;-54
2021/08/08 11:40:22;;;;;;;5.07;2.10;;;;;;;;;;5073332;28;20496;-54
2021/08/08 11:42:56;;;;;;;4.03;2.40;;;;;;;;;;5073543;28;20451;-55
2021/08/08 11:45:32;;;;;;;3.90;2.07;;;;;;;;;;5073494;28;20809;-55
2021/08/08 11:48:01;;;;;;;3.40;2.10;;;;;;;;;;5073414;28;20492;-56
2021/08/08 11:50:29;;;;;;;4.00;2.43;;;;;;;;;;5073262;28;20555;-55
2021/08/08 11:52:57;;;;;;;5.10;2.37;;;;;;;;;;5073100;28;20961;-55
2021/08/08 11:55:25;;;;;;;9.23;2.27;;;;;;;;;;5073411;28;20549;-55
2021/08/08 11:57:54;;;;;;;6.23;2.40;;;;;;;;;;5072711;28;20447;-57
2021/08/08 12:00:30;;;;;;;5.23;2.80;;;;;;;;;;5073111;28;20522;-55
2021/08/08 12:02:57;;;;;;;3.57;2.30;;;;;;;;;;5072889;28;20979;-54
2021/08/08 12:05:27;;;;;;;4.33;2.30;;;;;;;;;;5073033;28;20519;-54
2021/08/08 12:07:54;;;;;;;3.97;2.47;;;;;;;;;;5072896;28;20462;-54
2021/08/08 12:10:28;;;;;;;3.10;2.20;;;;;;;;;;5072912;28;20550;-55
2021/08/08 12:12:55;;;;;;;3.23;2.23;;;;;;;;;;5073134;28;20859;-55
2021/08/08 12:15:36;;;;;;;4.40;2.40;;;;;;;;;;5073068;28;20797;-55
2021/08/08 12:18:03;;;;;;;3.97;2.50;;;;;;;;;;5072768;28;20854;-55
2021/08/08 12:20:37;;;;;;;4.60;2.53;;;;;;;;;;5073069;28;20501;-55
2021/08/08 12:23:05;;;;;;;3.93;2.27;;;;;;;;;;5073037;28;20488;-55
2021/08/08 12:25:32;;;;;;;4.47;2.70;;;;;;;;;;5072976;28;20556;-55
2021/08/08 12:28:00;;;;;;;4.27;2.30;;;;;;;;;;5072822;28;20863;-55
2021/08/08 12:30:28;;;;;;;2.57;2.20;;;;;;;;;;5076698;28;20528;-55
2021/08/08 12:33:04;;;;;;;4.80;2.60;;;;;;;;;;5076508;28;20454;-55
2021/08/08 12:35:37;;;;;;;2.77;2.10;;;;;;;;;;5077090;28;20536;-55
2021/08/08 12:38:08;;;;;;;4.73;2.33;;;;;;;;;;5076864;28;20432;-55
2021/08/08 12:40:45;;;;;;;4.53;1.93;;;;;;;;;;5076807;28;20512;-55
2021/08/08 12:43:13;;;;;;;3.77;2.30;;;;;;;;;;5076707;28;20513;-55
2021/08/08 12:45:40;;;;;;;3.00;2.40;;;;;;;;;;5076649;28;20941;-55
2021/08/08 12:48:08;;;;;;;2.23;2.00;;;;;;;;;;5076141;28;20930;-55
2021/08/08 12:50:40;;;;;;;4.10;1.97;;;;;;;;;;5076099;28;20553;-55
2021/08/08 12:53:07;;;;;;;3.87;2.30;;;;;;;;;;5076489;28;20440;-55
2021/08/08 12:55:36;;;;;;;5.50;1.90;;;;;;;;;;5076084;28;20887;-56
2021/08/08 12:58:03;;;;;;;3.07;1.90;;;;;;;;;;5076592;28;20548;-55
2021/08/08 13:00:30;;;;;;;3.37;2.03;;;;;;;;;;5076036;28;20882;-55
2021/08/08 13:02:58;;;;;;;2.23;1.60;;;;;;;;;;5076384;28;20456;-56
2021/08/08 13:05:26;;;;;;;5.60;2.40;;;;;;;;;;5076303;28;20499;-55
2021/08/08 13:07:54;;;;;;;5.37;2.03;;;;;;;;;;5075872;28;20480;-55
2021/08/08 13:10:22;;;;;;;7.13;2.10;;;;;;;;;;5076076;28;20897;-56
2021/08/08 13:12:50;;;;;;;5.70;2.07;;;;;;;;;;5076108;28;20445;-55
2021/08/08 13:15:18;;;;;;;5.47;2.13;;;;;;;;;;5076227;28;20868;-56
2021/08/08 13:17:46;;;;;;;2.37;1.57;;;;;;;;;;5076262;28;20500;-55
2021/08/08 13:20:14;;;;;;;2.77;2.10;;;;;;;;;;5075893;28;20963;-55
2021/08/08 13:22:41;;;;;;;3.13;2.00;;;;;;;;;;5076227;28;20452;-55
2021/08/08 13:25:11;;;;;;;5.87;2.70;;;;;;;;;;5075605;28;20464;-55
2021/08/08 13:27:39;;;;;;;4.07;2.67;;;;;;;;;;5076572;28;20508;-55
2021/08/08 13:30:07;;;;;;;4.40;2.30;;;;;;;;;;5075957;28;20479;-55
2021/08/08 13:32:35;;;;;;;2.57;1.50;;;;;;;;;;5075478;28;20445;-55
2021/08/08 13:35:02;;;;;;;4.27;2.03;;;;;;;;;;5075618;28;20965;-55
2021/08/08 13:37:29;;;;;;;3.17;1.60;;;;;;;;;;5076038;28;20451;-54
2021/08/08 13:39:56;;;;;;;4.47;2.20;;;;;;;;;;5075310;28;20506;-55
2021/08/08 13:42:25;;;;;;;3.60;2.00;;;;;;;;;;5075725;28;20448;-55
2021/08/08 13:44:52;;;;;;;3.03;1.80;;;;;;;;;;5075634;28;20521;-55
2021/08/08 13:47:20;;;;;;;5.13;1.90;;;;;;;;;;5075220;28;20450;-55
2021/08/08 13:49:47;;;;;;;2.90;1.90;;;;;;;;;;5075080;28;20990;-55
2021/08/08 13:52:14;;;;;;;4.40;2.50;;;;;;;;;;5075255;28;20447;-55
2021/08/08 13:54:41;;;;;;;4.80;2.43;;;;;;;;;;5075460;28;20500;-55
2021/08/08 13:57:08;;;;;;;3.30;1.80;;;;;;;;;;5075315;28;20447;-55
2021/08/08 13:59:37;;;;;;;4.33;2.03;;;;;;;;;;5074894;28;20845;-55
2021/08/08 14:02:05;;;;;;;4.63;2.10;;;;;;;;;;5075072;28;20995;-56
2021/08/08 14:04:32;;;;;;;4.07;2.10;;;;;;;;;;5078235;28;20476;-55
2021/08/08 14:07:01;;;;;;;4.17;1.83;;;;;;;;;;5079389;28;20460;-55
2021/08/08 14:09:28;;;;;;;4.10;2.57;;;;;;;;;;5077626;28;20482;-55
2021/08/08 14:11:58;;;;;;;3.77;1.70;;;;;;;;;;5074773;28;20477;-55
2021/08/08 14:14:25;;;;;;;4.33;2.33;;;;;;;;;;5075300;28;20433;-55
2021/08/08 14:16:55;;;;;;;4.73;2.07;;;;;;;;;;5074688;28;21045;-56
2021/08/08 14:19:22;;;;;;;3.03;1.80;;;;;;;;;;5074654;28;20547;-56
2021/08/08 14:21:50;;;;;;;2.87;2.03;;;;;;;;;;5074776;28;20940;-56
2021/08/08 14:24:17;;;;;;;3.67;2.03;;;;;;;;;;5074976;28;20435;-56
2021/08/08 14:26:44;;;;;;;8.60;2.17;;;;;;;;;;5074456;28;21020;-55
2021/08/08 14:29:12;;;;;;;6.27;2.30;;;;;;;;;;5074900;28;20444;-55
2021/08/08 14:31:39;;;;;;;3.43;2.23;;;;;;;;;;5074434;28;21019;-55
2021/08/08 14:34:08;;;;;;;6.00;1.90;;;;;;;;;;5074390;28;20529;-55
2021/08/08 14:36:35;;;;;;;4.53;2.20;;;;;;;;;;5074736;28;20464;-55
2021/08/08 14:39:02;;;;;;;4.40;1.60;;;;;;;;;;5075504;28;20771;-55
2021/08/08 14:41:29;;;;;;;6.40;2.10;;;;;;;;;;5074143;28;20433;-55
2021/08/08 14:43:57;;;;;;;4.30;2.30;;;;;;;;;;5074480;28;20522;-55
2021/08/08 14:46:24;;;;;;;4.80;1.97;;;;;;;;;;5074127;28;20465;-55
2021/08/08 14:48:51;;;;;;;4.37;2.10;;;;;;;;;;5074324;28;20502;-55
2021/08/08 14:51:20;;;;;;;3.13;1.43;;;;;;;;;;5073282;28;20537;-55